Ibague, Colombia

2:06 PM COT on July 26, 2016 (GMT -0500)
Matecana | | Change Station

Elev 4403 ft 4.82 °N, 75.73 °W | Updated 6 minutes ago

Scattered Clouds
Scattered Clouds
75 °F
Feels Like 75 °F
N
9
Wind Variable Wind from East

Today
High -- | Low -- °F
--% Chance of Precip.
Yesterday
High -- | Low -- °F
Precip. -- in
Pressure 29.98 in
Visibility 6.2 miles
Clouds Scattered Clouds 1700 ft
Scattered Clouds 20000 ft
Dew Point 66 °F
Humidity 73%
Rainfall 0.00 in
Snow Depth Not available.
5:57 AM 6:16 PM
Waning Gibbous, 52% visible
METAR SKPE 261900Z 10008KT 9999 VCSH SCT017 SCT200 24/19 A2998 RMK/VCSH E SE
Pressure 29.98 in
Visibility 6.2 miles
Clouds Scattered Clouds 1700 ft
Scattered Clouds 20000 ft
Dew Point 66 °F
Humidity 73%
Rainfall 0.00 in
Snow Depth Not available.
5:57 AM 6:16 PM
Waning Gibbous, 52% visible
METAR SKPE 261900Z 10008KT 9999 VCSH SCT017 SCT200 24/19 A2998 RMK/VCSH E SE

10-Day Weather Forecast

No radar image for this location.
×

Almanac

Astronomy

Jul. 26, 2016 Rise Set
Actual Time
Civil Twilight
Nautical Twilight
Astronomical Twilight
Moon
Length of Visible Light
Length of Day
Tomorrow will be .
, % of the Moon is Illuminated

Today's Extremes

Country Highs Country Lows

Community

WunderPhotos

Upload Photos

1,927,662 photos uploaded!

WunderBlog® & News

Nearby

Air Quality

  Air Quality AQ Index Pollutant
Not available.

Snow Depth

Station Depth Elevation

Earthquake Activity

City Distance Mag. Time & Date
Minimum magnitude displayed is 2.5.

Coastal Water Temperatures

Place Temperature

Stations

Nearby Weather Stations

Station Location Temp. Windchill Dew Point Humidity Wind Precip. Elev Updated Type